createdAt,value
2019-05-22T00:00:44.920Z,0
2019-05-22T00:01:44.830Z,0
2019-05-22T00:02:44.922Z,0
2019-05-22T00:03:44.894Z,0
2019-05-22T00:04:44.956Z,0
2019-05-22T00:05:44.840Z,0
2019-05-22T00:06:44.873Z,0
2019-05-22T00:07:44.887Z,0
2019-05-22T00:08:44.874Z,0
2019-05-22T00:09:44.938Z,0
2019-05-22T00:10:44.872Z,0
2019-05-22T00:11:44.947Z,0
2019-05-22T00:12:47.068Z,0
2019-05-22T00:13:44.874Z,0
2019-05-22T00:14:44.939Z,0
2019-05-22T00:15:44.940Z,0
2019-05-22T00:16:44.874Z,0
2019-05-22T00:17:44.951Z,0
2019-05-22T00:18:44.941Z,0
2019-05-22T00:19:44.885Z,0
2019-05-22T00:20:44.933Z,0
2019-05-22T00:21:44.930Z,0
2019-05-22T00:22:44.942Z,0
2019-05-22T00:23:44.834Z,0
2019-05-22T00:24:44.935Z,0
2019-05-22T00:25:44.823Z,0
2019-05-22T00:26:44.935Z,0
2019-05-22T00:27:44.940Z,0
2019-05-22T00:28:44.840Z,0
2019-05-22T00:29:44.858Z,0
2019-05-22T00:30:44.889Z,0
2019-05-22T00:31:44.957Z,0
2019-05-22T00:32:44.952Z,0
2019-05-22T00:33:44.964Z,0
2019-05-22T00:34:44.953Z,0
2019-05-22T00:35:45.125Z,0
2019-05-22T00:36:45.014Z,0
2019-05-22T00:37:44.953Z,0
2019-05-22T00:38:44.898Z,0
2019-05-22T00:39:44.959Z,0
2019-05-22T00:40:44.959Z,0
2019-05-22T00:41:44.981Z,0
2019-05-22T00:42:44.944Z,0
2019-05-22T00:43:44.898Z,0
2019-05-22T00:44:44.931Z,0
2019-05-22T00:45:44.938Z,0
2019-05-22T00:46:44.964Z,0
2019-05-22T00:47:44.927Z,0
2019-05-22T00:48:44.904Z,0
2019-05-22T00:49:44.965Z,0
2019-05-22T00:50:44.907Z,0
2019-05-22T00:51:44.963Z,0
2019-05-22T00:52:44.900Z,0
2019-05-22T00:53:45.023Z,0
2019-05-22T00:54:44.904Z,0
2019-05-22T00:55:44.912Z,0
2019-05-22T00:56:44.910Z,0
2019-05-22T00:57:44.970Z,0
2019-05-22T00:58:44.903Z,0
2019-05-22T00:59:44.975Z,0
2019-05-22T01:00:44.918Z,0
2019-05-22T01:01:45.017Z,0
2019-05-22T01:02:44.987Z,0
2019-05-22T01:03:44.997Z,0
2019-05-22T01:04:44.880Z,0
2019-05-22T01:05:44.883Z,0
2019-05-22T01:06:44.955Z,0
2019-05-22T01:07:44.993Z,0
2019-05-22T01:08:44.981Z,0
2019-05-22T01:09:45.010Z,0
2019-05-22T01:10:44.945Z,0
2019-05-22T01:11:44.849Z,0
2019-05-22T01:12:44.959Z,0
2019-05-22T01:13:44.905Z,0
2019-05-22T01:14:44.953Z,0
2019-05-22T01:15:44.838Z,0
2019-05-22T01:16:44.949Z,0
2019-05-22T01:17:45.165Z,0
2019-05-22T01:18:44.938Z,0
2019-05-22T01:19:44.970Z,0
2019-05-22T01:20:44.914Z,0
2019-05-22T01:21:45.010Z,0
2019-05-22T01:22:47.356Z,0
2019-05-22T01:23:44.986Z,0
2019-05-22T01:24:44.927Z,0
2019-05-22T01:25:45.016Z,0
2019-05-22T01:26:44.990Z,0
2019-05-22T01:27:44.926Z,0
2019-05-22T01:28:44.996Z,0
2019-05-22T01:29:44.941Z,0
2019-05-22T01:30:44.929Z,0
2019-05-22T01:31:44.985Z,0
2019-05-22T01:32:45.000Z,0
2019-05-22T01:33:45.029Z,0
2019-05-22T01:34:44.984Z,0
2019-05-22T01:35:44.909Z,0
2019-05-22T01:36:44.951Z,0
2019-05-22T01:37:44.988Z,0
2019-05-22T01:38:44.925Z,0
2019-05-22T01:39:44.926Z,0
2019-05-22T01:40:44.891Z,0
2019-05-22T01:41:45.011Z,0
2019-05-22T01:42:45.030Z,0
2019-05-22T01:43:45.009Z,0
2019-05-22T01:44:59.689Z,0
2019-05-22T01:45:45.047Z,0
2019-05-22T01:46:44.906Z,0
2019-05-22T01:47:44.915Z,0
2019-05-22T01:48:45.035Z,0
2019-05-22T01:49:45.006Z,0
2019-05-22T01:50:45.048Z,0
2019-05-22T01:51:44.913Z,0
2019-05-22T01:52:45.049Z,0
2019-05-22T01:53:44.952Z,0
2019-05-22T01:54:45.045Z,0
2019-05-22T01:55:45.036Z,0
2019-05-22T01:56:44.921Z,0
2019-05-22T01:57:45.052Z,0
2019-05-22T01:58:45.044Z,0
2019-05-22T01:59:45.060Z,0
2019-05-22T02:00:45.078Z,0
2019-05-22T02:01:45.051Z,0
2019-05-22T02:02:45.015Z,0
2019-05-22T02:03:45.023Z,0
2019-05-22T02:04:45.057Z,0
2019-05-22T02:05:45.071Z,0
2019-05-22T02:06:45.021Z,0
2019-05-22T02:07:44.926Z,0
2019-05-22T02:08:45.096Z,0
2019-05-22T02:09:45.059Z,0
2019-05-22T02:10:44.989Z,0
2019-05-22T02:11:44.965Z,0
2019-05-22T02:12:44.910Z,0
2019-05-22T02:13:45.018Z,0
2019-05-22T02:14:45.022Z,0
2019-05-22T02:15:44.930Z,0
2019-05-22T02:16:55.902Z,0
2019-05-22T02:17:44.916Z,0
2019-05-22T02:18:45.016Z,0
2019-05-22T02:19:45.023Z,0
2019-05-22T02:20:45.017Z,0
2019-05-22T02:21:45.054Z,0
2019-05-22T02:22:44.977Z,0
2019-05-22T02:23:45.036Z,0
2019-05-22T02:24:44.973Z,0
2019-05-22T02:25:45.031Z,0
2019-05-22T02:26:44.968Z,0
2019-05-22T02:27:45.050Z,0
2019-05-22T02:28:44.973Z,0
2019-05-22T02:29:44.974Z,0
2019-05-22T02:30:44.974Z,0
2019-05-22T02:31:45.077Z,0
2019-05-22T02:32:45.043Z,0
2019-05-22T02:33:44.946Z,0
2019-05-22T02:34:45.045Z,0
2019-05-22T02:35:45.080Z,0
2019-05-22T02:36:45.015Z,0
2019-05-22T02:37:45.045Z,0
2019-05-22T02:38:45.079Z,0
2019-05-22T02:39:45.022Z,0
2019-05-22T02:40:45.050Z,0
2019-05-22T02:41:45.135Z,0
2019-05-22T02:42:44.974Z,0
2019-05-22T02:43:45.095Z,0
2019-05-22T02:44:45.086Z,4
2019-05-22T02:45:45.072Z,4
2019-05-22T02:46:45.088Z,4
2019-05-22T02:47:45.084Z,4
2019-05-22T02:48:45.089Z,4
2019-05-22T02:49:45.094Z,0
2019-05-22T02:50:45.053Z,4
2019-05-22T02:51:44.955Z,4
2019-05-22T02:52:45.069Z,8
2019-05-22T02:53:45.060Z,4
2019-05-22T02:54:44.958Z,8
2019-05-22T02:55:45.034Z,8
2019-05-22T02:56:45.105Z,8
2019-05-22T02:57:45.035Z,8
2019-05-22T02:58:45.025Z,12
2019-05-22T02:59:45.018Z,8
2019-05-22T03:00:45.086Z,8
2019-05-22T03:01:45.063Z,12
2019-05-22T03:02:45.022Z,12
2019-05-22T03:03:45.007Z,16
2019-05-22T03:04:45.006Z,12
2019-05-22T03:05:45.066Z,12
2019-05-22T03:06:45.003Z,16
2019-05-22T03:07:45.000Z,20
2019-05-22T03:08:45.073Z,16
2019-05-22T03:09:46.774Z,20
2019-05-22T03:10:45.009Z,20
2019-05-22T03:11:45.107Z,24
2019-05-22T03:12:45.036Z,24
2019-05-22T03:13:45.047Z,28
2019-05-22T03:14:45.080Z,28
2019-05-22T03:15:45.038Z,32
2019-05-22T03:16:44.990Z,36
2019-05-22T03:17:45.204Z,40
2019-05-22T03:18:45.019Z,44
2019-05-22T03:19:45.117Z,52
2019-05-22T03:20:45.008Z,64
2019-05-22T03:21:45.060Z,68
2019-05-22T03:22:45.050Z,80
2019-05-22T03:23:45.107Z,96
2019-05-22T03:24:45.113Z,148
2019-05-22T03:25:45.139Z,204
2019-05-22T03:26:45.119Z,200
2019-05-22T03:27:45.045Z,200
2019-05-22T03:28:45.110Z,196
2019-05-22T03:29:45.080Z,208
2019-05-22T03:30:45.120Z,216
2019-05-22T03:31:45.010Z,244
2019-05-22T03:32:45.118Z,264
2019-05-22T03:33:45.140Z,280
2019-05-22T03:34:45.142Z,272
2019-05-22T03:35:45.032Z,272
2019-05-22T03:36:45.068Z,280
2019-05-22T03:37:45.088Z,296
2019-05-22T03:38:45.066Z,308
2019-05-22T03:39:45.123Z,308
2019-05-22T03:40:45.070Z,304
2019-05-22T03:41:45.089Z,296
2019-05-22T03:42:45.000Z,300
2019-05-22T03:43:45.093Z,324
2019-05-22T03:44:45.004Z,364
2019-05-22T03:45:45.003Z,376
2019-05-22T03:46:45.081Z,368
2019-05-22T03:47:45.119Z,368
2019-05-22T03:48:45.134Z,400
2019-05-22T03:49:45.120Z,392
2019-05-22T03:50:45.007Z,436
2019-05-22T03:51:45.106Z,416
2019-05-22T03:52:45.037Z,404
2019-05-22T03:53:45.010Z,372
2019-05-22T03:54:45.084Z,392
2019-05-22T03:55:45.047Z,380
2019-05-22T03:56:45.074Z,396
2019-05-22T03:57:45.064Z,396
2019-05-22T03:58:45.148Z,396
2019-05-22T03:59:45.014Z,416
2019-05-22T04:00:45.139Z,468
2019-05-22T04:01:45.161Z,524
2019-05-22T04:02:45.040Z,520
2019-05-22T04:03:45.045Z,488
2019-05-22T04:04:45.069Z,484
2019-05-22T04:05:45.046Z,516
2019-05-22T04:06:45.109Z,508
2019-05-22T04:07:45.111Z,504
2019-05-22T04:08:45.055Z,508
2019-05-22T04:09:45.141Z,536
2019-05-22T04:10:45.061Z,688
2019-05-22T04:11:45.146Z,792
2019-05-22T04:12:45.055Z,840
2019-05-22T04:13:45.022Z,852
2019-05-22T04:14:45.150Z,868
2019-05-22T04:15:45.141Z,904
2019-05-22T04:16:45.157Z,832
2019-05-22T04:17:45.144Z,840
2019-05-22T04:18:45.126Z,852
2019-05-22T04:19:50.431Z,928
2019-05-22T04:20:45.164Z,948
2019-05-22T04:21:45.157Z,884
2019-05-22T04:22:45.143Z,876
2019-05-22T04:23:45.093Z,788
2019-05-22T04:24:45.130Z,784
2019-05-22T04:25:45.128Z,800
2019-05-22T04:26:45.153Z,792
2019-05-22T04:27:45.160Z,796
2019-05-22T04:28:45.141Z,816
2019-05-22T04:29:45.154Z,764
2019-05-22T04:30:45.132Z,772
2019-05-22T04:31:45.073Z,796
2019-05-22T04:32:45.035Z,872
2019-05-22T04:33:45.084Z,944
2019-05-22T04:34:45.024Z,1012
2019-05-22T04:35:45.065Z,1020
2019-05-22T04:36:45.091Z,1068
2019-05-22T04:37:44.994Z,1048
2019-05-22T04:38:45.090Z,1104
2019-05-22T04:39:45.064Z,1172
2019-05-22T04:40:45.088Z,1300
2019-05-22T04:41:45.074Z,1552
2019-05-22T04:42:45.064Z,1516
2019-05-22T04:43:45.115Z,1564
2019-05-22T04:44:45.090Z,1696
2019-05-22T04:45:45.036Z,1864
2019-05-22T04:46:45.134Z,2100
2019-05-22T04:47:44.994Z,2192
2019-05-22T04:48:46.376Z,2252
2019-05-22T04:49:45.032Z,2136
2019-05-22T04:50:45.142Z,2248
2019-05-22T04:51:45.148Z,2368
2019-05-22T04:52:45.082Z,2620
2019-05-22T04:53:45.072Z,2788
2019-05-22T04:54:45.085Z,2888
2019-05-22T04:55:45.146Z,3028
2019-05-22T04:56:45.153Z,3000
2019-05-22T04:57:45.154Z,2760
2019-05-22T04:58:45.209Z,2680
2019-05-22T04:59:45.147Z,2312
2019-05-22T05:00:45.150Z,2776
2019-05-22T05:01:45.082Z,2592
2019-05-22T05:02:45.179Z,2748
2019-05-22T05:03:45.045Z,2680
2019-05-22T05:04:45.090Z,2552
2019-05-22T05:05:45.155Z,3008
2019-05-22T05:06:45.097Z,3284
2019-05-22T05:07:45.153Z,3160
2019-05-22T05:08:45.172Z,3276
2019-05-22T05:09:45.085Z,2600
2019-05-22T05:10:45.088Z,2544
2019-05-22T05:11:45.081Z,2908
2019-05-22T05:12:45.121Z,3324
2019-05-22T05:13:45.077Z,3468
2019-05-22T05:14:45.039Z,4120
2019-05-22T05:15:45.062Z,3736
2019-05-22T05:16:45.038Z,3860
2019-05-22T05:17:45.081Z,4112
2019-05-22T05:18:45.037Z,3616
2019-05-22T05:19:45.108Z,3644
2019-05-22T05:20:45.038Z,3752
2019-05-22T05:21:45.173Z,3780
2019-05-22T05:22:45.104Z,3884
2019-05-22T05:23:45.190Z,4028
2019-05-22T05:24:45.176Z,4048
2019-05-22T05:25:45.109Z,3880
2019-05-22T05:26:45.108Z,3504
2019-05-22T05:27:45.178Z,2900
2019-05-22T05:28:45.125Z,2916
2019-05-22T05:29:45.187Z,2964
2019-05-22T05:30:45.112Z,3384
2019-05-22T05:31:45.172Z,4044
2019-05-22T05:32:45.101Z,5368
2019-05-22T05:33:45.171Z,6592
2019-05-22T05:34:45.598Z,7204
2019-05-22T05:35:45.113Z,7804
2019-05-22T05:36:45.181Z,9868
2019-05-22T05:37:45.100Z,10584
2019-05-22T05:38:45.176Z,9728
2019-05-22T05:39:45.110Z,9648
2019-05-22T05:40:45.198Z,10004
2019-05-22T05:41:45.175Z,10352
2019-05-22T05:42:45.177Z,10936
2019-05-22T05:43:45.116Z,10092
2019-05-22T05:44:45.181Z,10104
2019-05-22T05:45:45.142Z,9136
2019-05-22T05:46:45.179Z,9248
2019-05-22T05:47:45.184Z,10308
2019-05-22T05:48:45.105Z,10540
2019-05-22T05:49:45.108Z,10420
2019-05-22T05:50:45.121Z,9640
2019-05-22T05:51:45.149Z,9004
2019-05-22T05:52:45.192Z,8464
2019-05-22T05:53:45.115Z,8512
2019-05-22T05:54:45.152Z,8856
2019-05-22T05:55:45.142Z,8916
2019-05-22T05:56:45.190Z,9120
2019-05-22T05:57:45.133Z,9536
2019-05-22T05:58:45.115Z,10948
2019-05-22T05:59:45.118Z,11720
2019-05-22T06:00:45.092Z,11588
2019-05-22T06:01:45.213Z,10440
2019-05-22T06:02:56.092Z,10288
2019-05-22T06:03:45.204Z,12264
2019-05-22T06:04:45.189Z,11384
2019-05-22T06:05:45.207Z,11200
2019-05-22T06:06:45.232Z,10756
2019-05-22T06:07:45.137Z,10672
2019-05-22T06:08:45.211Z,10924
2019-05-22T06:09:45.143Z,12184
2019-05-22T06:10:45.212Z,12984
2019-05-22T06:11:45.101Z,11796
2019-05-22T06:12:45.153Z,10684
2019-05-22T06:13:45.201Z,9276
2019-05-22T06:14:45.201Z,9372
2019-05-22T06:15:47.683Z,8724
2019-05-22T06:16:45.169Z,8712
2019-05-22T06:17:45.216Z,8780
2019-05-22T06:18:45.082Z,9512
2019-05-22T06:19:45.144Z,9832
2019-05-22T06:21:01.183Z,10232
2019-05-22T06:21:45.132Z,9336
2019-05-22T06:22:45.215Z,10008
2019-05-22T06:23:45.146Z,10140
2019-05-22T06:24:45.209Z,9392
2019-05-22T06:25:45.137Z,8544
2019-05-22T06:26:45.211Z,8316
2019-05-22T06:27:45.216Z,9212
2019-05-22T06:28:45.139Z,9200
2019-05-22T06:29:45.273Z,9696
2019-05-22T06:30:45.138Z,10640
2019-05-22T06:31:45.215Z,10668
2019-05-22T06:32:45.222Z,10676
2019-05-22T06:33:45.216Z,9720
2019-05-22T06:34:45.216Z,9404
2019-05-22T06:35:45.144Z,8812
2019-05-22T06:36:45.222Z,7924
2019-05-22T06:37:45.164Z,9104
2019-05-22T06:38:45.149Z,9456
2019-05-22T06:39:45.220Z,9640
2019-05-22T06:40:45.144Z,10504
2019-05-22T06:41:45.228Z,11192
2019-05-22T06:42:45.237Z,11720
2019-05-22T06:43:45.183Z,12120
2019-05-22T06:44:45.242Z,12780
2019-05-22T06:45:45.235Z,13136
2019-05-22T06:46:45.234Z,14152
2019-05-22T06:47:45.166Z,15652
2019-05-22T06:48:45.242Z,17008
2019-05-22T06:49:45.236Z,17760
2019-05-22T06:50:45.181Z,18908
2019-05-22T06:51:45.237Z,19192
2019-05-22T06:52:45.229Z,18516
2019-05-22T06:53:45.227Z,17376
2019-05-22T06:54:45.243Z,17036
2019-05-22T06:55:45.143Z,17084
2019-05-22T06:56:45.182Z,17624
2019-05-22T06:57:45.127Z,17752
2019-05-22T06:58:45.234Z,16820
2019-05-22T06:59:45.173Z,15816
2019-05-22T07:00:45.235Z,15100
2019-05-22T07:01:45.183Z,15124
2019-05-22T07:02:45.246Z,17588
2019-05-22T07:03:45.270Z,18616
2019-05-22T07:04:45.191Z,14616
2019-05-22T07:05:45.255Z,12260
2019-05-22T07:06:45.185Z,13112
2019-05-22T07:07:45.182Z,12368
2019-05-22T07:08:45.185Z,11740
2019-05-22T07:09:45.187Z,13280
2019-05-22T07:10:45.260Z,12876
2019-05-22T07:11:45.180Z,12816
2019-05-22T07:12:45.213Z,11444
2019-05-22T07:13:45.158Z,11004
2019-05-22T07:14:45.245Z,13864
2019-05-22T07:15:45.184Z,13788
2019-05-22T07:16:45.170Z,12376
2019-05-22T07:17:45.249Z,11272
2019-05-22T07:18:45.248Z,10844
2019-05-22T07:19:45.260Z,11204
2019-05-22T07:20:45.205Z,10680
2019-05-22T07:21:45.212Z,10976
2019-05-22T07:22:45.265Z,11852
2019-05-22T07:23:45.263Z,11284
2019-05-22T07:24:45.195Z,11112
2019-05-22T07:25:45.196Z,10552
2019-05-22T07:26:45.305Z,10584
2019-05-22T07:27:45.202Z,10992
2019-05-22T07:28:45.272Z,11576
2019-05-22T07:29:45.266Z,11584
2019-05-22T07:30:45.286Z,10632
2019-05-22T07:31:45.323Z,11144
2019-05-22T07:32:45.271Z,11236
2019-05-22T07:33:45.199Z,11152
2019-05-22T07:34:45.266Z,11328
2019-05-22T07:36:05.459Z,11312
2019-05-22T07:36:45.258Z,11456
2019-05-22T07:37:45.237Z,11868
2019-05-22T07:38:45.272Z,12420
2019-05-22T07:39:45.217Z,12652
2019-05-22T07:40:49.669Z,13068
2019-05-22T07:41:45.274Z,14056
2019-05-22T07:42:45.291Z,13160
2019-05-22T07:43:45.169Z,12152
2019-05-22T07:44:45.206Z,12080
2019-05-22T07:45:45.278Z,12624
2019-05-22T07:46:45.216Z,14076
2019-05-22T07:47:45.211Z,13948
2019-05-22T07:48:45.289Z,14144
2019-05-22T07:49:45.218Z,15256
2019-05-22T07:50:48.437Z,16588
2019-05-22T07:51:55.926Z,16228
2019-05-22T07:52:45.269Z,15624
2019-05-22T07:53:45.274Z,15636
2019-05-22T07:54:45.241Z,15860
2019-05-22T07:55:45.277Z,16812
2019-05-22T07:56:45.185Z,18596
2019-05-22T07:57:45.189Z,18140
2019-05-22T07:58:45.278Z,17240
2019-05-22T07:59:45.208Z,17776
2019-05-22T08:00:45.204Z,19444
2019-05-22T08:01:45.161Z,18544
2019-05-22T08:02:45.308Z,18812
2019-05-22T08:03:45.289Z,20300
2019-05-22T08:04:45.303Z,17568
2019-05-22T08:05:45.230Z,16732
2019-05-22T08:06:45.310Z,18304
2019-05-22T08:07:45.253Z,18724
2019-05-22T08:08:45.226Z,20300
2019-05-22T08:09:45.238Z,19376
2019-05-22T08:10:45.303Z,18528
2019-05-22T08:11:45.298Z,19284
2019-05-22T08:12:45.233Z,22656
2019-05-22T08:13:45.311Z,27584
2019-05-22T08:14:45.226Z,23968
2019-05-22T08:15:47.822Z,29664
2019-05-22T08:16:45.313Z,36576
2019-05-22T08:17:45.238Z,29056
2019-05-22T08:18:45.307Z,27936
2019-05-22T08:19:45.304Z,27296
2019-05-22T08:20:45.251Z,25184
2019-05-22T08:21:45.302Z,28160
2019-05-22T08:22:45.221Z,24480
2019-05-22T08:23:45.260Z,20320
2019-05-22T08:24:45.177Z,20544
2019-05-22T08:25:45.276Z,23904
2019-05-22T08:26:54.337Z,26848
2019-05-22T08:27:45.209Z,30048
2019-05-22T08:28:45.167Z,30464
2019-05-22T08:29:45.258Z,25952
2019-05-22T08:30:45.197Z,26592
2019-05-22T08:31:45.177Z,26080
2019-05-22T08:32:45.318Z,24864
2019-05-22T08:33:45.314Z,23520
2019-05-22T08:34:45.329Z,20636
2019-05-22T08:35:45.248Z,18920
2019-05-22T08:36:45.319Z,18100
2019-05-22T08:37:45.337Z,18264
2019-05-22T08:38:45.322Z,19728
2019-05-22T08:39:45.252Z,22016
2019-05-22T08:40:45.257Z,20848
2019-05-22T08:41:45.260Z,22688
2019-05-22T08:42:45.267Z,23104
2019-05-22T08:44:15.354Z,25376
2019-05-22T08:44:45.278Z,30752
2019-05-22T08:45:45.302Z,31008
2019-05-22T08:46:45.282Z,32992
2019-05-22T08:47:45.227Z,33120
2019-05-22T08:48:48.164Z,28704
2019-05-22T08:49:45.226Z,33728
2019-05-22T08:50:45.287Z,42304
2019-05-22T08:51:45.305Z,36960
2019-05-22T08:52:45.274Z,29856
2019-05-22T08:53:48.010Z,24672
2019-05-22T08:54:45.233Z,22976
2019-05-22T08:55:45.319Z,24544
2019-05-22T08:56:45.287Z,23328
2019-05-22T08:57:45.254Z,21920
2019-05-22T08:58:45.326Z,21120
2019-05-22T08:59:45.263Z,21012
2019-05-22T09:00:45.253Z,20768
2019-05-22T09:01:45.241Z,20688
2019-05-22T09:02:45.269Z,23008
2019-05-22T09:03:45.281Z,26496
2019-05-22T09:04:45.229Z,25792
2019-05-22T09:05:45.475Z,24000
2019-05-22T09:06:45.340Z,23040
2019-05-22T09:07:45.338Z,22048
2019-05-22T09:08:45.272Z,21112
2019-05-22T09:09:45.278Z,21244
2019-05-22T09:10:45.344Z,21344
2019-05-22T09:11:45.290Z,21040
2019-05-22T09:12:45.256Z,20136
2019-05-22T09:13:45.329Z,19808
2019-05-22T09:14:45.334Z,20044
2019-05-22T09:15:45.339Z,20132
2019-05-22T09:16:45.345Z,20160
2019-05-22T09:17:45.338Z,20352
2019-05-22T09:18:45.338Z,20676
2019-05-22T09:19:45.264Z,20472
2019-05-22T09:20:49.288Z,20660
2019-05-22T09:21:45.234Z,22016
2019-05-22T09:22:45.378Z,22240
2019-05-22T09:23:45.304Z,22304
2019-05-22T09:24:45.355Z,22112
2019-05-22T09:25:45.284Z,24000
2019-05-22T09:26:45.376Z,23648
2019-05-22T09:27:45.295Z,25824
2019-05-22T09:28:45.274Z,34016
2019-05-22T09:29:45.237Z,38208
2019-05-22T09:30:45.307Z,31104
2019-05-22T09:31:45.351Z,25312
2019-05-22T09:32:47.583Z,27360
2019-05-22T09:33:45.250Z,24064
2019-05-22T09:34:45.281Z,21396
2019-05-22T09:35:45.299Z,19260
2019-05-22T09:36:45.295Z,19660
2019-05-22T09:37:45.356Z,21984
2019-05-22T09:38:45.274Z,22912
2019-05-22T09:39:45.289Z,23520
2019-05-22T09:40:45.286Z,24320
2019-05-22T09:41:45.233Z,23136
2019-05-22T09:42:45.230Z,22112
2019-05-22T09:43:45.225Z,21180
2019-05-22T09:44:45.314Z,19920
2019-05-22T09:45:45.257Z,20436
2019-05-22T09:46:45.193Z,20780
2019-05-22T09:47:45.296Z,21640
2019-05-22T09:48:45.319Z,20960
2019-05-22T09:49:45.291Z,19608
2019-05-22T09:50:45.284Z,18956
2019-05-22T09:51:45.359Z,18916
2019-05-22T09:52:56.887Z,20020
2019-05-22T09:53:45.287Z,20168
2019-05-22T09:54:45.274Z,19796
2019-05-22T09:55:47.305Z,20052
2019-05-22T09:56:45.291Z,20364
2019-05-22T09:57:45.370Z,19480
2019-05-22T09:58:45.300Z,18808
2019-05-22T09:59:45.293Z,18632
2019-05-22T10:00:45.311Z,18404
2019-05-22T10:01:45.282Z,18660
2019-05-22T10:02:45.385Z,18928
2019-05-22T10:03:45.396Z,19228
2019-05-22T10:04:45.274Z,20172
2019-05-22T10:05:45.451Z,20540
2019-05-22T10:06:45.315Z,21460
2019-05-22T10:07:59.171Z,22752
2019-05-22T10:08:45.375Z,22880
2019-05-22T10:09:45.396Z,22176
2019-05-22T10:10:45.398Z,21364
2019-05-22T10:11:45.389Z,21824
2019-05-22T10:12:45.367Z,22240
2019-05-22T10:13:45.344Z,22816
2019-05-22T10:14:45.429Z,23264
2019-05-22T10:15:45.289Z,23328
2019-05-22T10:16:45.317Z,23776
2019-05-22T10:17:45.255Z,23776
2019-05-22T10:18:45.343Z,24352
2019-05-22T10:19:45.250Z,25088
2019-05-22T10:20:45.298Z,24768
2019-05-22T10:21:45.343Z,24576
2019-05-22T10:22:45.393Z,24864
2019-05-22T10:23:45.328Z,25344
2019-05-22T10:24:49.924Z,28032
2019-05-22T10:25:45.327Z,27648
2019-05-22T10:26:45.341Z,28160
2019-05-22T10:27:45.405Z,27904
2019-05-22T10:28:45.466Z,26560
2019-05-22T10:29:45.400Z,25184
2019-05-22T10:30:45.358Z,25152
2019-05-22T10:31:45.418Z,25664
2019-05-22T10:32:45.400Z,24640
2019-05-22T10:33:45.408Z,22624
2019-05-22T10:34:45.332Z,21244
2019-05-22T10:35:45.412Z,20144
2019-05-22T10:36:45.348Z,19600
2019-05-22T10:37:45.330Z,18344
2019-05-22T10:38:45.473Z,18168
2019-05-22T10:39:45.415Z,17292
2019-05-22T10:40:45.412Z,16164
2019-05-22T10:41:45.340Z,15924
2019-05-22T10:42:45.580Z,15960
2019-05-22T10:43:45.432Z,15636
2019-05-22T10:44:45.401Z,15592
2019-05-22T10:45:45.314Z,15976
2019-05-22T10:46:45.403Z,16992
2019-05-22T10:47:45.340Z,17716
2019-05-22T10:48:45.405Z,18068
2019-05-22T10:49:45.330Z,18528
2019-05-22T10:50:45.339Z,18896
2019-05-22T10:51:45.329Z,19148
2019-05-22T10:52:45.345Z,19816
2019-05-22T10:53:45.417Z,20244
2019-05-22T10:54:45.355Z,19240
2019-05-22T10:55:45.353Z,18140
2019-05-22T10:56:45.423Z,18152
2019-05-22T10:57:45.438Z,18836
2019-05-22T10:58:45.357Z,19856
2019-05-22T10:59:45.423Z,20064
2019-05-22T11:00:45.358Z,19200
2019-05-22T11:01:45.359Z,18324
2019-05-22T11:02:45.418Z,18256
2019-05-22T11:03:45.345Z,20376
2019-05-22T11:04:45.339Z,24544
2019-05-22T11:05:45.320Z,32640
2019-05-22T11:06:45.418Z,39840
2019-05-22T11:07:45.424Z,47040
2019-05-22T11:08:45.425Z,52480
2019-05-22T11:09:45.491Z,53472
2019-05-22T11:10:45.541Z,54336
2019-05-22T11:11:45.336Z,55584
2019-05-22T11:12:45.430Z,51872
2019-05-22T11:13:59.843Z,48352
2019-05-22T11:14:45.442Z,46528
2019-05-22T11:15:45.367Z,47264
2019-05-22T11:16:45.432Z,48384
2019-05-22T11:17:45.367Z,47808
2019-05-22T11:18:45.362Z,42656
2019-05-22T11:19:45.443Z,36320
2019-05-22T11:20:45.452Z,29824
2019-05-22T11:21:45.438Z,25504
2019-05-22T11:22:45.425Z,21204
2019-05-22T11:23:51.834Z,18312
2019-05-22T11:24:45.381Z,16640
2019-05-22T11:25:45.376Z,15880
2019-05-22T11:26:45.431Z,15376
2019-05-22T11:27:45.357Z,15980
2019-05-22T11:28:45.357Z,19024
2019-05-22T11:29:45.398Z,26464
2019-05-22T11:30:45.366Z,31616
2019-05-22T11:31:45.377Z,32320
2019-05-22T11:32:45.378Z,30112
2019-05-22T11:33:45.450Z,26016
2019-05-22T11:34:45.445Z,24832
2019-05-22T11:35:45.522Z,26432
2019-05-22T11:36:45.455Z,27904
2019-05-22T11:37:45.479Z,28896
2019-05-22T11:38:45.452Z,28992
2019-05-22T11:39:45.414Z,28288
2019-05-22T11:40:45.454Z,25248
2019-05-22T11:41:45.485Z,23744
2019-05-22T11:42:45.514Z,27008
2019-05-22T11:43:45.449Z,36288
2019-05-22T11:44:45.457Z,44736
2019-05-22T11:45:45.926Z,52832
2019-05-22T11:46:45.489Z,58016
2019-05-22T11:47:45.464Z,63648
2019-05-22T11:48:45.403Z,70912
2019-05-22T11:49:45.441Z,84832
2019-05-22T11:50:45.396Z,99360
2019-05-22T11:51:45.453Z,97536
2019-05-22T11:52:45.475Z,85248
2019-05-22T11:53:45.453Z,86080
2019-05-22T11:54:45.394Z,88224
2019-05-22T11:55:46.313Z,70528
2019-05-22T11:56:45.467Z,72576
2019-05-22T11:57:45.409Z,70080
2019-05-22T11:58:45.466Z,65248
2019-05-22T11:59:45.414Z,62752
2019-05-22T12:00:45.419Z,65344
2019-05-22T12:01:45.471Z,64480
2019-05-22T12:02:45.416Z,61440
2019-05-22T12:03:45.446Z,61120
2019-05-22T12:04:48.342Z,62048
2019-05-22T12:05:45.471Z,70144
2019-05-22T12:06:45.476Z,66912
2019-05-22T12:07:45.471Z,69248
2019-05-22T12:08:45.469Z,81536
2019-05-22T12:09:45.472Z,117920
2019-05-22T12:10:45.417Z,108960
2019-05-22T12:11:45.476Z,83776
2019-05-22T12:12:45.505Z,214720
2019-05-22T12:13:45.464Z,178656
2019-05-22T12:14:45.462Z,100448
2019-05-22T12:15:45.378Z,115776
2019-05-22T12:16:45.410Z,180288
2019-05-22T12:17:45.463Z,154944
2019-05-22T12:18:45.409Z,103936
2019-05-22T12:19:45.386Z,110304
2019-05-22T12:20:45.369Z,81792
2019-05-22T12:21:45.434Z,75808
2019-05-22T12:22:45.462Z,75040
2019-05-22T12:23:45.402Z,73440
2019-05-22T12:24:45.461Z,71840
2019-05-22T12:25:45.387Z,80064
2019-05-22T12:26:45.418Z,61568
2019-05-22T12:27:45.400Z,55200
2019-05-22T12:28:45.425Z,52704
2019-05-22T12:29:45.418Z,51904
2019-05-22T12:30:45.495Z,53856
2019-05-22T12:31:45.393Z,56224
2019-05-22T12:32:45.504Z,60160
2019-05-22T12:33:45.385Z,65120
2019-05-22T12:34:45.565Z,69600
2019-05-22T12:35:45.423Z,73536
2019-05-22T12:36:45.432Z,79104
2019-05-22T12:37:45.494Z,108928
2019-05-22T12:38:45.545Z,74240
2019-05-22T12:39:45.437Z,70240
2019-05-22T12:40:45.499Z,75584
2019-05-22T12:41:45.499Z,71776
2019-05-22T12:42:45.495Z,61792
2019-05-22T12:43:45.573Z,65760
2019-05-22T12:44:45.447Z,66560
2019-05-22T12:45:45.441Z,75680
2019-05-22T12:46:45.510Z,74336
2019-05-22T12:47:45.499Z,72480
2019-05-22T12:48:45.501Z,68704
2019-05-22T12:49:45.463Z,63104
2019-05-22T12:50:45.501Z,76320
2019-05-22T12:51:45.445Z,73632
2019-05-22T12:52:45.509Z,76864
2019-05-22T12:53:45.449Z,65248
2019-05-22T12:54:49.647Z,74304
2019-05-22T12:55:45.439Z,178496
2019-05-22T12:56:45.625Z,66912
2019-05-22T12:57:45.450Z,56256
2019-05-22T12:58:45.461Z,52320
2019-05-22T12:59:45.512Z,47552
2019-05-22T13:00:45.520Z,44192
2019-05-22T13:01:45.514Z,41856
2019-05-22T13:02:45.461Z,40384
2019-05-22T13:03:45.510Z,40704
2019-05-22T13:04:45.415Z,42720
2019-05-22T13:05:45.425Z,42848
2019-05-22T13:06:45.510Z,41760
2019-05-22T13:07:45.434Z,44576
2019-05-22T13:08:45.439Z,49952
2019-05-22T13:09:45.509Z,54400
2019-05-22T13:11:45.548Z,50528
2019-05-22T13:12:45.455Z,51328
2019-05-22T13:13:45.528Z,53152
2019-05-22T13:14:45.455Z,56672
2019-05-22T13:15:45.526Z,65536
2019-05-22T13:16:48.903Z,85152
2019-05-22T13:17:45.467Z,188032
2019-05-22T13:18:45.518Z,109216
2019-05-22T13:19:45.533Z,182784
2019-05-22T13:20:45.541Z,72000
2019-05-22T13:21:45.525Z,67584
2019-05-22T13:22:45.467Z,88032
2019-05-22T13:23:45.661Z,77216
2019-05-22T13:24:45.588Z,63136
2019-05-22T13:25:45.549Z,60864
2019-05-22T13:26:45.463Z,61536